Liberty, KS

5:26 AM CDT on October 24, 2014 (GMT -0500)
Coffeyville Municipal | Change Station
CLOSE
Current Station
Airport
Location: Coffeyville,
Elevation: 751 ft
Nearby Weather Stations

Elev 751 ft 37.09 °N, 95.57 °W | Updated 34 minutes ago

Partly Cloudy
Partly Cloudy
53 °F
Feels Like 53 °F
N
5
Wind Variable Wind from South

Today
High -- | Low -- °F
--% Chance of Precip.
Yesterday
High -- | Low -- °F
Precip. -- in
7:38 AM 6:33 PM
New Moon, 0% visible
Pressure 30.09 in
Visibility 7.0 miles
Clouds Scattered Clouds 4900 ft
Dew Point 52 °F
Humidity 96%
Rainfall 0.00 in
Snow Depth Not available.
UV 0 out of 12
Pollen 3.30 out of 12
Air Quality Not available.
Flu Activity No Activity
METAR KCFV 240952Z AUTO 19004KT 7SM SCT049 12/11 A3010 RMK AO2 SLP190 T01170111

More Conditions Fewer Conditions

Pressure 30.09 in
Visibility 7.0 miles
Clouds Scattered Clouds 4900 ft
Dew Point 52 °F
Humidity 96%
Rainfall 0.00 in
Snow Depth Not available.
UV 0 out of 12
Pollen 3.30 out of 12
Air Quality Not available.
Flu Activity No Activity
METAR KCFV 240952Z AUTO 19004KT 7SM SCT049 12/11 A3010 RMK AO2 SLP190 T01170111

More Conditions Fewer Conditions

10-Day Weather Forecast

Almanac

Astronomy

Oct. 24, 2014 Rise Set
Actual Time 7:38 AM CDT 6:33 PM CDT
Civil Twilight 7:12 AM CDT 7:00 PM CDT
Nautical Twilight 6:41 AM CDT 7:30 PM CDT
Astronomical Twilight 6:11 AM CDT 8:00 PM CDT
Moon 8:17 AM CDT 7:15 PM CDT
Length of Visible Light 11h 48m
Length of Day
10h 55m
Tomorrow will be 2m 11s shorter.
New Moon, 0% of the Moon is Illuminated
Today
New Moon
Oct 30
First Quarter
Nov 6
Full
Nov 14
Last Quarter
Nov 22
New

Today's Extremes

State Highs State Lows

Community

WunderPhotos

Upload Photos

1,764,513 photos uploaded!

WunderBlogs® & News

Nearby

Snow Depth

Station Depth Elevation
No new snow has been reported.

Earthquake Activity

City Distance Mag. Time & Date
Pawnee, Oklahoma 94 miles 2.7 1:06 AM CDT
2014-10-23
Luther, Oklahoma 137 miles 2.5 10:36 PM CDT
2014-10-22
Langston, Oklahoma 126 miles 2.9 10:03 AM CDT
2014-10-22
Langston, Oklahoma 126 miles 2.6 8:31 AM CDT
2014-10-22
Minimum magnitude displayed is 2.5.

Coastal Water Temperatures

Place Temperature
No Stations Reporting

Nearby Weather Stations